Terminal Aerodrome Forecast
Issued by NWS

Home | Current Version | Previous Version | Text Only | Print | Product List | Glossary On
Versions: 1 2 3 4 5 6 7 8 9 10 11 12 13 14 15 16
000
FTUS44 KTSA 282336
TAFRVS
TAF
KRVS 282336Z 2900/2924 VRB12G25KT 3SM -TSRA BKN025CB OVC060
     FM290100 VRB04KT P6SM SCT040 BKN200
     FM290900 VRB02KT 4SM BR SCT030 BKN250 PROB30 2909/2915 3SM TSRA
      BKN040CB
     FM291500 14006KT P6SM SCT050 BKN250 PROB30 2915/2918 5SM -TSRA
      BKN050CB=

USA.gov is the U.S. government's official web portal to all federal, state and local government web resources and services.